createdAt,value
2022-10-13T00:00:54.242Z,47.86
2022-10-13T00:01:54.197Z,46.41
2022-10-13T00:02:54.186Z,46.08
2022-10-13T00:03:54.231Z,46.57
2022-10-13T00:04:54.187Z,46.25
2022-10-13T00:05:54.212Z,45.92
2022-10-13T00:06:54.182Z,46.25
2022-10-13T00:07:54.191Z,47.86
2022-10-13T00:08:54.167Z,48.50
2022-10-13T00:09:54.149Z,47.70
2022-10-13T00:10:54.179Z,47.53
2022-10-13T00:11:54.168Z,47.53
2022-10-13T00:12:54.145Z,47.37
2022-10-13T00:13:54.193Z,46.41
2022-10-13T00:14:54.126Z,46.73
2022-10-13T00:15:54.144Z,46.57
2022-10-13T00:16:54.153Z,48.50
2022-10-13T00:17:54.133Z,45.44
2022-10-13T00:18:54.118Z,45.76
2022-10-13T00:19:54.129Z,45.12
2022-10-13T00:20:54.109Z,45.60
2022-10-13T00:21:54.124Z,45.28
2022-10-13T00:22:54.097Z,47.21
2022-10-13T00:23:54.084Z,45.60
2022-10-13T00:24:54.108Z,45.60
2022-10-13T00:25:54.083Z,45.28
2022-10-13T00:26:54.097Z,45.92
2022-10-13T00:27:54.114Z,45.92
2022-10-13T00:28:54.186Z,45.60
2022-10-13T00:29:54.076Z,45.60
2022-10-13T00:30:54.094Z,44.96
2022-10-13T00:31:54.055Z,45.12
2022-10-13T00:32:54.037Z,45.44
2022-10-13T00:33:54.107Z,46.41
2022-10-13T00:34:54.048Z,45.44
2022-10-13T00:35:54.063Z,44.96
2022-10-13T00:36:54.019Z,44.63
2022-10-13T00:37:54.023Z,45.44
2022-10-13T00:38:54.106Z,45.28
2022-10-13T00:39:54.008Z,45.12
2022-10-13T00:40:54.020Z,45.60
2022-10-13T00:41:53.998Z,45.76
2022-10-13T00:42:53.993Z,46.57
2022-10-13T00:43:54.039Z,47.86
2022-10-13T00:44:54.010Z,46.25
2022-10-13T00:45:54.003Z,45.28
2022-10-13T00:46:54.024Z,45.28
2022-10-13T00:47:54.000Z,44.63
2022-10-13T00:48:53.995Z,44.63
2022-10-13T00:49:53.990Z,44.96
2022-10-13T00:50:53.957Z,44.79
2022-10-13T00:51:53.998Z,44.96
2022-10-13T00:52:53.966Z,44.96
2022-10-13T00:53:53.955Z,45.28
2022-10-13T00:54:53.951Z,45.28
2022-10-13T00:55:54.020Z,44.96
2022-10-13T00:56:53.959Z,45.12
2022-10-13T00:57:53.926Z,46.25
2022-10-13T00:58:53.922Z,48.82
2022-10-13T00:59:53.924Z,46.57
2022-10-13T01:00:53.964Z,46.73
2022-10-13T01:01:53.924Z,45.76
2022-10-13T01:02:53.944Z,45.12
2022-10-13T01:03:53.942Z,44.96
2022-10-13T01:04:53.895Z,44.96
2022-10-13T01:05:53.879Z,45.12
2022-10-13T01:06:53.901Z,44.79
2022-10-13T01:07:53.902Z,45.44
2022-10-13T01:08:53.877Z,44.47
2022-10-13T01:09:53.869Z,44.96
2022-10-13T01:10:53.840Z,45.44
2022-10-13T01:11:53.869Z,45.44
2022-10-13T01:12:53.891Z,46.25
2022-10-13T01:13:53.848Z,45.92
2022-10-13T01:14:53.836Z,45.76
2022-10-13T01:15:53.854Z,45.28
2022-10-13T01:16:53.855Z,44.96
2022-10-13T01:17:53.818Z,45.12
2022-10-13T01:18:53.863Z,45.12
2022-10-13T01:19:53.847Z,44.79
2022-10-13T01:20:53.815Z,44.63
2022-10-13T01:21:53.820Z,45.60
2022-10-13T01:22:53.800Z,45.44
2022-10-13T01:23:53.840Z,44.96
2022-10-13T01:24:53.794Z,45.12
2022-10-13T01:25:54.835Z,47.21
2022-10-13T01:26:53.801Z,48.02
2022-10-13T01:27:53.798Z,45.44
2022-10-13T01:28:53.781Z,46.25
2022-10-13T01:29:53.805Z,47.05
2022-10-13T01:30:53.770Z,46.25
2022-10-13T01:31:53.756Z,45.12
2022-10-13T01:32:53.767Z,45.12
2022-10-13T01:33:53.752Z,44.79
2022-10-13T01:34:53.784Z,44.63
2022-10-13T01:35:53.750Z,44.47
2022-10-13T01:36:53.739Z,45.76
2022-10-13T01:37:53.737Z,48.34
2022-10-13T01:38:53.736Z,46.08
2022-10-13T01:39:53.745Z,46.08
2022-10-13T01:40:53.745Z,45.60
2022-10-13T01:41:53.737Z,45.12
2022-10-13T01:42:53.747Z,45.92
2022-10-13T01:43:53.753Z,45.60
2022-10-13T01:44:53.697Z,46.41
2022-10-13T01:45:53.715Z,45.76
2022-10-13T01:46:53.805Z,46.41
2022-10-13T01:47:53.701Z,46.41
2022-10-13T01:48:53.675Z,46.08
2022-10-13T01:49:53.678Z,45.44
2022-10-13T01:50:53.686Z,45.44
2022-10-13T01:51:53.693Z,45.12
2022-10-13T01:52:53.759Z,45.12
2022-10-13T01:53:53.664Z,45.44
2022-10-13T01:54:53.654Z,45.12
2022-10-13T01:55:53.661Z,44.63
2022-10-13T01:56:53.671Z,44.96
2022-10-13T01:57:53.664Z,45.12
2022-10-13T01:58:53.654Z,44.96
2022-10-13T01:59:53.638Z,45.76
2022-10-13T02:00:53.664Z,47.05
2022-10-13T02:01:53.630Z,45.92
2022-10-13T02:02:53.639Z,46.25
2022-10-13T02:03:53.684Z,45.60
2022-10-13T02:04:53.688Z,44.63
2022-10-13T02:05:53.613Z,45.12
2022-10-13T02:06:54.480Z,45.92
2022-10-13T02:07:53.619Z,46.08
2022-10-13T02:08:53.613Z,45.60
2022-10-13T02:09:53.637Z,45.76
2022-10-13T02:10:53.584Z,46.25
2022-10-13T02:11:53.615Z,45.92
2022-10-13T02:12:53.700Z,44.63
2022-10-13T02:13:53.595Z,45.12
2022-10-13T02:14:53.571Z,45.44
2022-10-13T02:15:53.568Z,44.79
2022-10-13T02:16:53.560Z,45.12
2022-10-13T02:17:53.583Z,45.92
2022-10-13T02:18:53.549Z,46.89
2022-10-13T02:19:53.572Z,44.96
2022-10-13T02:20:53.594Z,45.76
2022-10-13T02:21:53.580Z,45.92
2022-10-13T02:22:53.541Z,45.60
2022-10-13T02:23:53.510Z,45.44
2022-10-13T02:24:53.528Z,45.12
2022-10-13T02:25:53.536Z,45.28
2022-10-13T02:26:53.540Z,44.96
2022-10-13T02:27:53.520Z,45.28
2022-10-13T02:28:53.495Z,46.25
2022-10-13T02:29:53.513Z,46.25
2022-10-13T02:30:53.581Z,45.44
2022-10-13T02:31:53.485Z,45.28
2022-10-13T02:32:53.488Z,46.08
2022-10-13T02:33:53.489Z,45.92
2022-10-13T02:34:53.471Z,45.44
2022-10-13T02:35:53.461Z,47.05
2022-10-13T02:36:53.484Z,45.92
2022-10-13T02:37:53.506Z,45.44
2022-10-13T02:38:53.491Z,46.73
2022-10-13T02:39:53.471Z,46.73
2022-10-13T02:40:53.440Z,45.92
2022-10-13T02:41:53.661Z,45.44
2022-10-13T02:42:53.440Z,46.73
2022-10-13T02:43:53.426Z,46.25
2022-10-13T02:44:53.422Z,45.44
2022-10-13T02:45:53.481Z,45.76
2022-10-13T02:46:53.479Z,45.44
2022-10-13T02:47:53.421Z,46.25
2022-10-13T02:48:53.452Z,46.57
2022-10-13T02:49:53.420Z,46.25
2022-10-13T02:50:53.517Z,44.79
2022-10-13T02:51:53.406Z,45.60
2022-10-13T02:52:53.412Z,46.25
2022-10-13T02:53:53.381Z,46.73
2022-10-13T02:54:53.406Z,45.92
2022-10-13T02:55:53.397Z,46.08
2022-10-13T02:56:53.398Z,45.44
2022-10-13T02:57:53.400Z,45.44
2022-10-13T02:58:53.395Z,46.73
2022-10-13T02:59:53.392Z,46.73
2022-10-13T03:00:53.396Z,45.92
2022-10-13T03:01:53.411Z,45.28
2022-10-13T03:02:53.342Z,47.05
2022-10-13T03:03:53.365Z,46.41
2022-10-13T03:04:53.362Z,48.18
2022-10-13T03:05:53.350Z,47.21
2022-10-13T03:06:53.353Z,48.34
2022-10-13T03:07:53.325Z,47.21
2022-10-13T03:08:53.306Z,46.41
2022-10-13T03:09:53.333Z,48.66
2022-10-13T03:10:53.304Z,48.82
2022-10-13T03:11:53.340Z,45.76
2022-10-13T03:12:53.311Z,46.25
2022-10-13T03:13:53.280Z,48.02
2022-10-13T03:14:53.281Z,46.25
2022-10-13T03:15:53.303Z,48.34
2022-10-13T03:16:53.294Z,50.11
2022-10-13T03:17:53.323Z,47.21
2022-10-13T03:18:53.295Z,50.43
2022-10-13T03:19:53.276Z,54.95
2022-10-13T03:20:53.272Z,50.43
2022-10-13T03:21:53.257Z,53.33
2022-10-13T03:22:53.277Z,48.98
2022-10-13T03:23:53.298Z,48.34
2022-10-13T03:24:53.251Z,48.50
2022-10-13T03:25:53.234Z,48.18
2022-10-13T03:26:53.240Z,48.98
2022-10-13T03:27:53.243Z,46.08
2022-10-13T03:28:53.323Z,47.86
2022-10-13T03:29:53.216Z,49.47
2022-10-13T03:30:53.222Z,49.47
2022-10-13T03:31:53.199Z,49.63
2022-10-13T03:32:53.205Z,50.43
2022-10-13T03:33:53.230Z,48.18
2022-10-13T03:34:53.208Z,48.02
2022-10-13T03:35:53.198Z,47.37
2022-10-13T03:36:53.191Z,48.18
2022-10-13T03:37:53.183Z,49.63
2022-10-13T03:38:53.199Z,48.66
2022-10-13T03:39:53.188Z,48.66
2022-10-13T03:40:53.187Z,48.98
2022-10-13T03:41:53.165Z,46.41
2022-10-13T03:42:53.151Z,47.70
2022-10-13T03:43:53.158Z,47.21
2022-10-13T03:44:56.317Z,46.73
2022-10-13T03:45:54.150Z,47.53
2022-10-13T03:46:53.135Z,49.63
2022-10-13T03:47:53.132Z,49.47
2022-10-13T03:48:53.139Z,49.95
2022-10-13T03:49:53.131Z,52.53
2022-10-13T03:50:53.133Z,52.21
2022-10-13T03:51:53.146Z,48.18
2022-10-13T03:52:53.114Z,48.18
2022-10-13T03:53:53.119Z,51.40
2022-10-13T03:54:53.136Z,49.95
2022-10-13T03:55:53.118Z,48.34
2022-10-13T03:56:53.082Z,48.50
2022-10-13T03:57:54.097Z,48.34
2022-10-13T03:58:53.080Z,46.73
2022-10-13T03:59:53.093Z,50.11
2022-10-13T04:00:53.211Z,48.98
2022-10-13T04:01:53.115Z,52.53
2022-10-13T04:02:53.097Z,53.01
2022-10-13T04:03:53.081Z,53.66
2022-10-13T04:04:53.081Z,53.98
2022-10-13T04:05:53.035Z,50.27
2022-10-13T04:06:53.046Z,51.24
2022-10-13T04:07:53.100Z,46.89
2022-10-13T04:08:53.048Z,53.98
2022-10-13T04:09:53.028Z,54.14
2022-10-13T04:10:53.041Z,50.43
2022-10-13T04:11:53.053Z,50.43
2022-10-13T04:12:53.037Z,51.72
2022-10-13T04:13:53.009Z,51.40
2022-10-13T04:14:53.049Z,48.98
2022-10-13T04:15:53.013Z,51.40
2022-10-13T04:16:53.003Z,49.95
2022-10-13T04:17:53.026Z,51.72
2022-10-13T04:18:52.990Z,53.50
2022-10-13T04:19:53.035Z,49.95
2022-10-13T04:20:52.987Z,51.56
2022-10-13T04:21:53.003Z,53.17
2022-10-13T04:22:52.965Z,52.69
2022-10-13T04:23:52.974Z,53.17
2022-10-13T04:24:52.993Z,52.37
2022-10-13T04:25:52.947Z,54.95
2022-10-13T04:26:52.975Z,54.14
2022-10-13T04:27:52.954Z,53.82
2022-10-13T04:28:53.020Z,55.11
2022-10-13T04:29:52.963Z,52.37
2022-10-13T04:30:52.959Z,54.62
2022-10-13T04:31:52.976Z,52.85
2022-10-13T04:32:52.933Z,53.33
2022-10-13T04:33:52.934Z,54.14
2022-10-13T04:34:52.978Z,52.53
2022-10-13T04:35:52.907Z,51.88
2022-10-13T04:36:52.957Z,47.70
2022-10-13T04:37:52.900Z,51.72
2022-10-13T04:38:52.890Z,52.85
2022-10-13T04:39:52.959Z,47.86
2022-10-13T04:40:52.912Z,46.08
2022-10-13T04:41:52.900Z,53.01
2022-10-13T04:42:52.886Z,52.69
2022-10-13T04:43:52.877Z,52.53
2022-10-13T04:44:52.892Z,52.05
2022-10-13T04:45:52.883Z,53.66
2022-10-13T04:46:52.878Z,51.88
2022-10-13T04:47:52.870Z,52.37
2022-10-13T04:48:52.851Z,52.05
2022-10-13T04:49:52.856Z,49.47
2022-10-13T04:50:52.858Z,50.60
2022-10-13T04:51:52.853Z,48.82
2022-10-13T04:52:52.863Z,49.15
2022-10-13T04:53:52.862Z,52.53
2022-10-13T04:54:52.875Z,54.14
2022-10-13T04:55:52.808Z,49.79
2022-10-13T04:56:52.921Z,50.27
2022-10-13T04:57:52.835Z,50.43
2022-10-13T04:58:52.804Z,51.56
2022-10-13T04:59:52.794Z,49.47
2022-10-13T05:00:52.814Z,51.08
2022-10-13T05:01:52.810Z,50.76
2022-10-13T05:02:52.814Z,53.50
2022-10-13T05:03:52.773Z,52.85
2022-10-13T05:04:52.776Z,50.92
2022-10-13T05:05:52.766Z,51.08
2022-10-13T05:07:16.565Z,50.92
2022-10-13T05:07:54.789Z,50.76
2022-10-13T05:08:52.762Z,53.66
2022-10-13T05:09:52.884Z,50.11
2022-10-13T05:10:52.746Z,51.08
2022-10-13T05:11:52.801Z,51.56
2022-10-13T05:12:52.750Z,51.72
2022-10-13T05:13:52.771Z,51.88
2022-10-13T05:14:52.737Z,52.53
2022-10-13T05:15:52.741Z,51.56
2022-10-13T05:16:52.708Z,52.05
2022-10-13T05:17:52.713Z,55.11
2022-10-13T05:18:52.732Z,53.50
2022-10-13T05:19:52.711Z,56.24
2022-10-13T05:20:52.730Z,54.14
2022-10-13T05:21:52.900Z,51.88
2022-10-13T05:22:52.691Z,54.95
2022-10-13T05:23:52.705Z,52.37
2022-10-13T05:24:52.707Z,49.63
2022-10-13T05:25:52.675Z,49.79
2022-10-13T05:26:52.683Z,51.72
2022-10-13T05:27:52.665Z,54.14
2022-10-13T05:28:52.711Z,52.69
2022-10-13T05:29:52.680Z,52.37
2022-10-13T05:30:52.661Z,51.08
2022-10-13T05:31:52.736Z,54.62
2022-10-13T05:32:54.014Z,50.60
2022-10-13T05:33:53.645Z,50.27
2022-10-13T05:34:52.696Z,54.46
2022-10-13T05:35:52.693Z,52.37
2022-10-13T05:36:52.700Z,54.14
2022-10-13T05:37:53.650Z,51.56
2022-10-13T05:38:52.618Z,53.33
2022-10-13T05:39:52.642Z,53.66
2022-10-13T05:40:52.638Z,52.69
2022-10-13T05:41:52.721Z,50.92
2022-10-13T05:42:52.613Z,51.72
2022-10-13T05:43:52.613Z,51.40
2022-10-13T05:44:52.650Z,51.72
2022-10-13T05:45:52.592Z,52.05
2022-10-13T05:46:52.587Z,50.76
2022-10-13T05:47:52.586Z,51.56
2022-10-13T05:48:52.567Z,53.01
2022-10-13T05:49:52.665Z,53.01
2022-10-13T05:50:52.626Z,49.31
2022-10-13T05:51:52.595Z,51.72
2022-10-13T05:52:52.589Z,52.37
2022-10-13T05:53:56.908Z,52.05
2022-10-13T05:54:54.536Z,56.56
2022-10-13T05:55:52.573Z,52.85
2022-10-13T05:56:52.536Z,53.33
2022-10-13T05:57:52.531Z,50.43
2022-10-13T05:58:52.553Z,52.05
2022-10-13T05:59:52.578Z,52.37
2022-10-13T06:00:52.533Z,52.37
2022-10-13T06:01:52.578Z,52.05
2022-10-13T06:02:52.504Z,51.40
2022-10-13T06:03:52.507Z,49.31
2022-10-13T06:04:52.552Z,52.69
2022-10-13T06:05:53.004Z,54.14
2022-10-13T06:06:52.576Z,53.66
2022-10-13T06:07:52.613Z,51.56
2022-10-13T06:08:53.602Z,54.46
2022-10-13T06:09:52.482Z,50.76
2022-10-13T06:10:52.516Z,53.01
2022-10-13T06:11:52.484Z,52.85
2022-10-13T06:12:52.505Z,52.69
2022-10-13T06:13:52.462Z,52.69
2022-10-13T06:14:52.495Z,52.37
2022-10-13T06:15:53.474Z,48.18
2022-10-13T06:16:52.542Z,51.24
2022-10-13T06:17:52.622Z,53.01
2022-10-13T06:18:52.474Z,52.05
2022-10-13T06:19:52.429Z,50.43
2022-10-13T06:20:52.433Z,50.43
2022-10-13T06:21:52.497Z,50.92
2022-10-13T06:22:52.426Z,48.82
2022-10-13T06:23:52.470Z,54.14
2022-10-13T06:24:52.508Z,52.53
2022-10-13T06:25:52.507Z,53.82
2022-10-13T06:26:52.399Z,52.85
2022-10-13T06:27:52.394Z,49.79
2022-10-13T06:28:56.923Z,51.56
2022-10-13T06:29:54.431Z,52.69
2022-10-13T06:30:52.390Z,52.21
2022-10-13T06:31:52.375Z,48.82
2022-10-13T06:32:52.375Z,51.72
2022-10-13T06:33:53.030Z,49.31
2022-10-13T06:34:52.385Z,49.79
2022-10-13T06:35:52.361Z,52.69
2022-10-13T06:36:52.405Z,50.92
2022-10-13T06:37:52.392Z,51.88
2022-10-13T06:38:52.353Z,54.14
2022-10-13T06:39:52.350Z,49.47
2022-10-13T06:40:52.321Z,51.24
2022-10-13T06:41:52.349Z,50.11
2022-10-13T06:42:52.387Z,48.18
2022-10-13T06:43:52.331Z,51.88
2022-10-13T06:44:52.359Z,48.66
2022-10-13T06:45:52.334Z,48.18
2022-10-13T06:46:52.295Z,48.66
2022-10-13T06:47:52.558Z,51.56
2022-10-13T06:48:52.386Z,51.88
2022-10-13T06:49:52.358Z,51.40
2022-10-13T06:50:52.340Z,53.33
2022-10-13T06:51:52.294Z,47.05
2022-10-13T06:52:52.308Z,50.11
2022-10-13T06:53:52.326Z,49.15
2022-10-13T06:54:52.309Z,53.01
2022-10-13T06:55:52.711Z,49.47
2022-10-13T06:56:53.246Z,50.27
2022-10-13T06:57:52.336Z,49.15
2022-10-13T06:58:52.256Z,49.79
2022-10-13T06:59:52.273Z,48.82
2022-10-13T07:00:52.257Z,51.56
2022-10-13T07:01:52.232Z,49.31
2022-10-13T07:02:52.228Z,48.98
2022-10-13T07:03:52.251Z,50.92
2022-10-13T07:04:52.212Z,47.37
2022-10-13T07:05:52.230Z,48.82
2022-10-13T07:06:52.189Z,47.53
2022-10-13T07:07:52.207Z,50.27
2022-10-13T07:08:52.193Z,50.11
2022-10-13T07:09:52.209Z,49.15
2022-10-13T07:10:52.168Z,48.98
2022-10-13T07:11:52.200Z,49.63
2022-10-13T07:12:52.258Z,48.98
2022-10-13T07:13:52.186Z,48.98
2022-10-13T07:14:52.154Z,48.50
2022-10-13T07:15:52.162Z,50.27
2022-10-13T07:16:52.158Z,49.31
2022-10-13T07:17:52.143Z,47.86
2022-10-13T07:18:52.154Z,49.15
2022-10-13T07:19:57.018Z,47.21
2022-10-13T07:20:54.147Z,50.11
2022-10-13T07:21:52.112Z,54.62
2022-10-13T07:22:52.148Z,52.69
2022-10-13T07:23:52.143Z,51.56
2022-10-13T07:24:52.110Z,50.11
2022-10-13T07:25:52.111Z,51.08
2022-10-13T07:26:52.068Z,51.56
2022-10-13T07:27:52.085Z,52.21
2022-10-13T07:28:52.112Z,51.56
2022-10-13T07:29:52.114Z,51.08
2022-10-13T07:30:53.055Z,51.08
2022-10-13T07:31:52.032Z,48.66
2022-10-13T07:32:52.047Z,50.60
2022-10-13T07:33:52.048Z,51.08
2022-10-13T07:34:52.056Z,53.33
2022-10-13T07:35:52.058Z,50.92
2022-10-13T07:36:52.056Z,51.72
2022-10-13T07:37:52.007Z,48.66
2022-10-13T07:38:52.002Z,51.24
2022-10-13T07:39:51.995Z,51.56
2022-10-13T07:40:51.981Z,51.40
2022-10-13T07:41:52.007Z,47.53
2022-10-13T07:42:52.035Z,50.11
2022-10-13T07:43:51.974Z,51.56
2022-10-13T07:44:51.992Z,50.92
2022-10-13T07:45:51.965Z,48.50
2022-10-13T07:46:52.007Z,48.02
2022-10-13T07:47:51.959Z,50.11
2022-10-13T07:48:52.044Z,49.15
2022-10-13T07:49:51.928Z,48.82
2022-10-13T07:50:51.937Z,49.79
2022-10-13T07:51:52.000Z,50.43
2022-10-13T07:52:52.018Z,50.27
2022-10-13T07:53:51.926Z,51.88
2022-10-13T07:54:51.910Z,52.05
2022-10-13T07:55:52.592Z,49.47
2022-10-13T07:56:51.893Z,51.56
2022-10-13T07:57:51.904Z,48.18
2022-10-13T07:58:51.890Z,48.02
2022-10-13T07:59:51.876Z,49.47
2022-10-13T08:00:51.892Z,46.73
2022-10-13T08:01:51.962Z,50.43
2022-10-13T08:02:51.868Z,50.11
2022-10-13T08:03:51.870Z,51.08
2022-10-13T08:04:51.887Z,50.11
2022-10-13T08:05:51.843Z,49.15
2022-10-13T08:06:51.846Z,52.05
2022-10-13T08:07:54.716Z,49.63
2022-10-13T08:08:54.007Z,48.34
2022-10-13T08:09:51.858Z,51.56
2022-10-13T08:10:51.891Z,47.05
2022-10-13T08:11:51.816Z,49.15
2022-10-13T08:12:51.864Z,47.53
2022-10-13T08:13:51.807Z,49.47
2022-10-13T08:14:51.900Z,50.11
2022-10-13T08:15:51.858Z,49.95
2022-10-13T08:16:53.688Z,48.82
2022-10-13T08:17:51.807Z,50.27
2022-10-13T08:18:51.782Z,50.43
2022-10-13T08:19:51.750Z,47.53
2022-10-13T08:20:55.563Z,46.73
2022-10-13T08:22:00.435Z,47.05
2022-10-13T08:22:53.753Z,49.47
2022-10-13T08:23:51.741Z,50.43
2022-10-13T08:24:51.738Z,49.79
2022-10-13T08:25:51.751Z,47.70
2022-10-13T08:26:51.754Z,48.82
2022-10-13T08:27:54.730Z,51.88
2022-10-13T08:29:23.087Z,50.11
2022-10-13T08:29:53.741Z,49.95
2022-10-13T08:30:51.853Z,47.05
2022-10-13T08:31:51.960Z,47.05
2022-10-13T08:32:51.704Z,48.02
2022-10-13T08:33:51.695Z,48.34
2022-10-13T08:34:51.668Z,50.76
2022-10-13T08:35:51.691Z,51.08
2022-10-13T08:36:51.702Z,48.50
2022-10-13T08:37:51.686Z,49.47
2022-10-13T08:38:51.661Z,49.63
2022-10-13T08:39:51.662Z,48.18
2022-10-13T08:40:51.637Z,48.50
2022-10-13T08:41:51.662Z,49.15
2022-10-13T08:42:53.631Z,49.47
2022-10-13T08:44:33.025Z,48.98
2022-10-13T08:45:53.684Z,48.02
2022-10-13T08:46:51.814Z,50.11
2022-10-13T08:47:51.595Z,49.47
2022-10-13T08:48:51.605Z,54.30
2022-10-13T08:49:54.337Z,50.11
2022-10-13T08:50:52.600Z,49.47
2022-10-13T08:51:51.614Z,48.50
2022-10-13T08:52:51.631Z,49.95
2022-10-13T08:53:51.575Z,50.11
2022-10-13T08:54:51.560Z,47.70
2022-10-13T08:55:51.597Z,47.86
2022-10-13T08:56:51.656Z,49.15
2022-10-13T08:57:51.539Z,48.66
2022-10-13T08:58:51.551Z,47.21
2022-10-13T08:59:51.507Z,47.53
2022-10-13T09:00:51.514Z,48.02
2022-10-13T09:01:51.586Z,51.08
2022-10-13T09:02:51.484Z,50.27
2022-10-13T09:03:52.617Z,53.01
2022-10-13T09:04:52.029Z,49.79
2022-10-13T09:05:51.479Z,48.50
2022-10-13T09:06:51.485Z,50.27
2022-10-13T09:07:51.485Z,50.11
2022-10-13T09:08:51.510Z,52.85
2022-10-13T09:09:51.488Z,48.50
2022-10-13T09:10:51.491Z,49.15
2022-10-13T09:11:52.574Z,49.31
2022-10-13T09:12:51.470Z,49.15
2022-10-13T09:13:51.436Z,50.27
2022-10-13T09:14:51.467Z,49.95
2022-10-13T09:15:51.451Z,48.50
2022-10-13T09:16:51.437Z,50.60
2022-10-13T09:17:51.408Z,49.63
2022-10-13T09:18:51.417Z,48.02
2022-10-13T09:19:51.446Z,50.43
2022-10-13T09:20:51.420Z,48.02
2022-10-13T09:21:51.403Z,49.63
2022-10-13T09:22:51.384Z,48.66
2022-10-13T09:23:51.366Z,51.56
2022-10-13T09:24:51.366Z,51.24
2022-10-13T09:25:51.419Z,49.95
2022-10-13T09:26:51.379Z,52.69
2022-10-13T09:27:51.338Z,48.82
2022-10-13T09:28:51.389Z,50.11
2022-10-13T09:29:51.345Z,51.40
2022-10-13T09:30:51.378Z,51.56
2022-10-13T09:31:51.359Z,49.63
2022-10-13T09:32:51.314Z,50.76
2022-10-13T09:33:51.306Z,48.02
2022-10-13T09:34:51.310Z,47.05
2022-10-13T09:35:51.285Z,50.27
2022-10-13T09:36:51.370Z,51.88
2022-10-13T09:37:51.306Z,49.47
2022-10-13T09:38:51.297Z,49.31
2022-10-13T09:39:51.357Z,48.02
2022-10-13T09:40:51.264Z,47.70
2022-10-13T09:41:51.284Z,48.34
2022-10-13T09:42:51.249Z,47.05
2022-10-13T09:43:51.294Z,51.40
2022-10-13T09:44:51.346Z,49.31
2022-10-13T09:45:51.229Z,48.66
2022-10-13T09:46:51.256Z,48.34
2022-10-13T09:47:51.218Z,49.79
2022-10-13T09:48:51.221Z,48.98
2022-10-13T09:49:51.229Z,49.15
2022-10-13T09:50:51.242Z,48.82
2022-10-13T09:51:51.191Z,48.34
2022-10-13T09:52:51.215Z,48.34
2022-10-13T09:53:51.176Z,48.98
2022-10-13T09:54:51.178Z,49.47
2022-10-13T09:55:51.198Z,49.63
2022-10-13T09:56:51.175Z,50.60
2022-10-13T09:57:51.129Z,50.92
2022-10-13T09:58:51.146Z,50.76
2022-10-13T09:59:51.243Z,49.31
2022-10-13T10:00:51.153Z,50.43
2022-10-13T10:01:51.136Z,48.82
2022-10-13T10:02:51.146Z,49.31
2022-10-13T10:03:51.174Z,47.53
2022-10-13T10:04:51.114Z,46.41
2022-10-13T10:05:51.118Z,51.24
2022-10-13T10:06:51.084Z,47.70
2022-10-13T10:07:51.115Z,46.89
2022-10-13T10:09:02.648Z,50.27
2022-10-13T10:09:53.046Z,49.63
2022-10-13T10:10:51.077Z,48.66
2022-10-13T10:11:51.132Z,46.57
2022-10-13T10:12:51.016Z,46.08
2022-10-13T10:13:51.047Z,49.47
2022-10-13T10:14:51.029Z,50.60
2022-10-13T10:15:51.038Z,50.27
2022-10-13T10:16:51.058Z,50.92
2022-10-13T10:17:50.995Z,49.63
2022-10-13T10:18:55.024Z,49.63
2022-10-13T10:19:53.489Z,50.76
2022-10-13T10:20:51.014Z,48.18
2022-10-13T10:21:50.968Z,50.43
2022-10-13T10:22:50.977Z,47.86
2022-10-13T10:23:50.985Z,50.27
2022-10-13T10:24:50.961Z,49.31
2022-10-13T10:25:50.933Z,49.95
2022-10-13T10:26:50.960Z,47.53
2022-10-13T10:27:50.924Z,50.60
2022-10-13T10:28:51.070Z,48.34
2022-10-13T10:29:50.892Z,49.15
2022-10-13T10:30:50.926Z,51.24
2022-10-13T10:31:50.862Z,48.34
2022-10-13T10:32:51.885Z,50.27
2022-10-13T10:33:50.897Z,50.11
2022-10-13T10:34:50.849Z,51.08
2022-10-13T10:35:50.976Z,50.76
2022-10-13T10:36:50.870Z,49.31
2022-10-13T10:37:50.845Z,51.72
2022-10-13T10:38:50.897Z,48.82
2022-10-13T10:39:50.835Z,52.85
2022-10-13T10:40:50.836Z,50.11
2022-10-13T10:41:50.812Z,48.34
2022-10-13T10:42:52.332Z,49.79
2022-10-13T10:43:51.802Z,51.40
2022-10-13T10:44:50.787Z,51.08
2022-10-13T10:45:50.804Z,51.24
2022-10-13T10:46:50.767Z,51.56
2022-10-13T10:47:50.757Z,48.82
2022-10-13T10:48:50.791Z,47.86
2022-10-13T10:49:50.766Z,49.63
2022-10-13T10:50:50.877Z,50.43
2022-10-13T10:51:50.743Z,48.66
2022-10-13T10:52:50.756Z,48.02
2022-10-13T10:53:51.017Z,48.82
2022-10-13T10:54:50.716Z,49.31
2022-10-13T10:55:50.724Z,52.21
2022-10-13T10:56:50.694Z,52.05
2022-10-13T10:57:50.677Z,52.05
2022-10-13T10:58:50.665Z,49.47
2022-10-13T10:59:50.663Z,48.98
2022-10-13T11:00:50.683Z,48.66
2022-10-13T11:01:50.713Z,48.98
2022-10-13T11:02:50.638Z,49.47
2022-10-13T11:03:50.655Z,50.60
2022-10-13T11:04:50.639Z,46.89
2022-10-13T11:05:50.624Z,48.50
2022-10-13T11:06:50.650Z,50.11
2022-10-13T11:07:50.656Z,47.53
2022-10-13T11:08:50.587Z,46.89
2022-10-13T11:09:50.676Z,48.18
2022-10-13T11:10:50.606Z,45.76
2022-10-13T11:11:50.571Z,47.05
2022-10-13T11:12:50.609Z,48.50
2022-10-13T11:13:50.697Z,50.11
2022-10-13T11:14:50.576Z,49.95
2022-10-13T11:15:50.570Z,52.05
2022-10-13T11:16:50.577Z,50.11
2022-10-13T11:17:50.545Z,50.92
2022-10-13T11:18:50.526Z,49.95
2022-10-13T11:19:50.544Z,48.98
2022-10-13T11:20:52.796Z,51.40
2022-10-13T11:21:50.520Z,50.60
2022-10-13T11:22:51.100Z,52.21
2022-10-13T11:23:50.478Z,51.56
2022-10-13T11:24:50.684Z,49.79
2022-10-13T11:25:50.469Z,48.34
2022-10-13T11:26:50.474Z,48.50
2022-10-13T11:27:50.455Z,53.01
2022-10-13T11:28:50.538Z,49.95
2022-10-13T11:29:50.431Z,51.56
2022-10-13T11:30:50.693Z,49.95
2022-10-13T11:31:50.472Z,54.14
2022-10-13T11:32:50.436Z,47.53
2022-10-13T11:33:50.404Z,49.95
2022-10-13T11:34:50.384Z,52.53
2022-10-13T11:35:50.398Z,49.31
2022-10-13T11:36:51.135Z,51.08
2022-10-13T11:38:05.621Z,48.98
2022-10-13T11:38:52.358Z,51.24
2022-10-13T11:39:50.367Z,46.57
2022-10-13T11:40:50.364Z,48.34
2022-10-13T11:41:50.338Z,49.15
2022-10-13T11:42:52.294Z,52.05
2022-10-13T11:43:51.333Z,49.63
2022-10-13T11:44:50.324Z,53.50
2022-10-13T11:45:50.312Z,49.15
2022-10-13T11:46:50.305Z,49.31
2022-10-13T11:47:50.335Z,49.15
2022-10-13T11:48:50.346Z,49.95
2022-10-13T11:49:50.283Z,50.11
2022-10-13T11:50:50.307Z,50.11
2022-10-13T11:51:50.256Z,48.50
2022-10-13T11:52:50.356Z,49.95
2022-10-13T11:53:50.302Z,49.47
2022-10-13T11:54:50.243Z,47.86
2022-10-13T11:55:50.292Z,47.53
2022-10-13T11:56:50.234Z,52.53
2022-10-13T11:57:50.224Z,49.15
2022-10-13T11:58:50.196Z,48.50
2022-10-13T11:59:50.198Z,49.95
2022-10-13T12:00:50.242Z,49.79
2022-10-13T12:01:50.203Z,51.24
2022-10-13T12:02:50.258Z,49.79
2022-10-13T12:03:50.182Z,52.05
2022-10-13T12:04:50.183Z,49.47
2022-10-13T12:05:50.189Z,51.40
2022-10-13T12:06:50.191Z,49.15
2022-10-13T12:07:50.247Z,50.60
2022-10-13T12:08:50.231Z,50.60
2022-10-13T12:09:50.166Z,49.47
2022-10-13T12:10:50.132Z,48.34
2022-10-13T12:11:50.218Z,48.50
2022-10-13T12:12:50.175Z,49.95
2022-10-13T12:13:50.117Z,49.47
2022-10-13T12:14:50.108Z,52.05
2022-10-13T12:15:50.093Z,51.08
2022-10-13T12:16:50.189Z,48.66
2022-10-13T12:17:50.116Z,49.15
2022-10-13T12:18:50.079Z,51.40
2022-10-13T12:19:50.074Z,55.59
2022-10-13T12:20:50.067Z,54.95
2022-10-13T12:21:50.123Z,57.04
2022-10-13T12:22:50.205Z,57.52
2022-10-13T12:23:50.083Z,58.01
2022-10-13T12:24:50.032Z,57.69
2022-10-13T12:25:50.064Z,57.69
2022-10-13T12:26:50.054Z,57.04
2022-10-13T12:27:50.032Z,53.01
2022-10-13T12:28:50.223Z,49.47
2022-10-13T12:29:50.014Z,49.15
2022-10-13T12:30:49.995Z,52.53
2022-10-13T12:31:49.988Z,51.56
2022-10-13T12:32:50.001Z,50.60
2022-10-13T12:33:49.994Z,52.05
2022-10-13T12:34:49.987Z,49.47
2022-10-13T12:35:49.985Z,48.98
2022-10-13T12:36:50.005Z,50.60
2022-10-13T12:37:50.019Z,52.21
2022-10-13T12:38:49.983Z,52.69
2022-10-13T12:39:49.970Z,50.43
2022-10-13T12:40:49.934Z,50.76
2022-10-13T12:41:49.903Z,51.40
2022-10-13T12:42:49.909Z,51.56
2022-10-13T12:43:49.902Z,52.37
2022-10-13T12:44:49.910Z,54.79
2022-10-13T12:45:49.928Z,54.62
2022-10-13T12:46:49.891Z,56.40
2022-10-13T12:47:49.871Z,52.53
2022-10-13T12:48:49.920Z,51.72
2022-10-13T12:49:49.925Z,49.47
2022-10-13T12:50:49.881Z,53.82
2022-10-13T12:51:49.863Z,54.95
2022-10-13T12:52:49.843Z,50.11
2022-10-13T12:53:49.863Z,53.01